Time;durP1;ratioP1;P1;durP2;ratioP2;P2;SDS_P1;SDS_P2;PMS_P1;PMS_P2;Temp;Humidity;BMP_temperature;BMP_pressure;BME280_temperature;BME280_humidity;BME280_pressure;Samples;Min_cycle;Max_cycle;Signal;HPM_P1;HPM_P2
2021/06/25 00:01:28;;;;;;;;;23.33;20.00;;;;;34.41;37.47;100869.16;144163;563;132014;-77
2021/06/25 00:03:58;;;;;;;;;11.00;10.00;;;;;34.43;37.50;100872.44;144167;569;132010;-77
2021/06/25 00:06:28;;;;;;;;;19.00;19.00;;;;;34.44;37.39;100863.66;144150;572;132031;-78
2021/06/25 00:08:58;;;;;;;;;21.33;19.33;;;;;34.45;37.27;100870.09;144150;566;132008;-79
2021/06/25 00:11:28;;;;;;;;;20.67;19.67;;;;;34.45;36.81;100864.47;144154;563;132020;-80
2021/06/25 00:13:58;;;;;;;;;18.67;18.67;;;;;34.50;36.84;100866.25;144166;566;132010;-80
2021/06/25 00:16:29;;;;;;;;;20.00;19.00;;;;;34.53;36.63;100860.78;144149;585;132010;-80
2021/06/25 00:18:59;;;;;;;;;18.67;18.00;;;;;34.51;35.70;100857.53;144166;563;131020;-75
2021/06/25 00:21:29;;;;;;;;;16.33;16.00;;;;;34.49;35.50;100854.19;144152;578;131904;-79
2021/06/25 00:23:59;;;;;;;;;19.33;18.33;;;;;34.43;35.37;100852.78;144167;619;132008;-76
2021/06/25 00:26:29;;;;;;;;;22.33;22.00;;;;;34.38;35.17;100853.81;144162;569;132012;-82
2021/06/25 00:28:59;;;;;;;;;18.00;17.67;;;;;34.38;34.68;100853.00;144169;674;131021;-76
2021/06/25 00:31:29;;;;;;;;;21.00;20.33;;;;;34.39;34.10;100846.22;144145;606;132012;-80
2021/06/25 00:34:04;;;;;;;;;19.67;19.67;;;;;34.32;33.01;100849.59;144154;569;131020;-82
2021/06/25 00:36:34;;;;;;;;;20.00;20.00;;;;;34.29;32.87;100845.50;144153;599;132011;-80
2021/06/25 00:39:04;;;;;;;;;18.67;17.00;;;;;34.25;32.27;100847.34;144165;611;132010;-80
2021/06/25 00:41:34;;;;;;;;;21.67;20.67;;;;;34.22;32.11;100853.66;144149;559;132018;-80
2021/06/25 00:44:05;;;;;;;;;17.33;17.33;;;;;34.16;32.40;100863.44;144169;629;132009;-81
2021/06/25 00:46:35;;;;;;;;;16.33;15.33;;;;;34.14;32.34;100861.00;144147;597;132010;-80
2021/06/25 00:49:05;;;;;;;;;14.00;12.00;;;;;34.15;32.31;100861.81;144170;573;132008;-81
2021/06/25 00:51:35;;;;;;;;;20.33;17.67;;;;;34.16;32.56;100860.66;144156;578;133012;-78
2021/06/25 00:54:08;;;;;;;;;21.00;19.67;;;;;34.14;32.62;100857.37;144166;573;132010;-79
2021/06/25 00:56:38;;;;;;;;;19.00;17.33;;;;;34.24;32.51;100864.53;144143;595;132905;-76
2021/06/25 00:59:09;;;;;;;;;19.67;18.00;;;;;34.24;32.56;100864.53;144152;632;132010;-75
2021/06/25 01:01:39;;;;;;;;;17.00;17.00;;;;;34.18;32.93;100863.91;144150;633;132031;-75
2021/06/25 01:04:13;;;;;;;;;18.33;17.33;;;;;34.14;33.35;100865.78;144166;643;132008;-81
2021/06/25 01:06:43;;;;;;;;;21.00;19.00;;;;;34.07;33.64;100865.53;144152;584;132905;-81
2021/06/25 01:09:15;;;;;;;;;18.33;17.33;;;;;34.04;34.11;100860.59;144165;584;132008;-83
2021/06/25 01:11:45;;;;;;;;;19.00;18.00;;;;;34.00;34.53;100852.88;144145;570;132018;-89
2021/06/25 01:14:18;;;;;;;;;13.00;12.00;;;;;33.99;34.98;100845.62;144168;644;132011;-81
2021/06/25 01:16:49;;;;;;;;;19.00;17.67;;;;;33.97;35.01;100839.53;144157;622;132905;-80
2021/06/25 01:19:19;;;;;;;;;23.00;22.33;;;;;33.96;35.19;100837.03;144170;572;131021;-83
2021/06/25 01:21:49;;;;;;;;;20.00;18.33;;;;;33.95;35.20;100841.00;144151;590;132012;-79
2021/06/25 01:24:19;;;;;;;;;20.67;18.67;;;;;33.95;35.20;100841.84;144155;596;132008;-80
2021/06/25 01:26:52;;;;;;;;;17.33;17.00;;;;;33.95;34.95;100841.00;144153;576;132010;-79
2021/06/25 01:29:23;;;;;;;;;17.00;16.67;;;;;33.94;34.68;100842.16;144164;575;132011;-79
2021/06/25 01:31:54;;;;;;;;;17.67;16.67;;;;;33.90;34.11;100835.62;144150;652;132010;-80
2021/06/25 01:34:24;;;;;;;;;16.33;16.33;;;;;33.90;33.67;100839.22;144166;567;132008;-80
2021/06/25 01:36:54;;;;;;;;;18.33;18.33;;;;;33.91;33.59;100840.06;144155;586;132905;-80
2021/06/25 01:39:25;;;;;;;;;23.00;21.00;;;;;33.91;32.74;100838.06;144171;633;131020;-82
2021/06/25 01:41:56;;;;;;;;;17.33;17.33;;;;;33.91;32.50;100835.25;144167;610;131024;-83
2021/06/25 01:44:26;;;;;;;;;22.33;20.67;;;;;33.93;32.92;100838.56;144164;608;132010;-76
2021/06/25 01:46:56;;;;;;;;;16.67;16.00;;;;;33.92;33.02;100836.94;144152;604;132010;-75
2021/06/25 01:49:27;;;;;;;;;18.67;17.67;;;;;33.84;32.39;100840.63;144154;684;131020;-71
2021/06/25 01:51:57;;;;;;;;;17.67;17.33;;;;;33.80;32.57;100840.47;144149;574;131905;-74
2021/06/25 01:54:27;;;;;;;;;20.67;18.67;;;;;33.82;32.36;100842.94;144170;574;131020;-71
2021/06/25 01:56:57;;;;;;;;;20.67;20.00;;;;;33.78;32.62;100847.59;144147;570;132905;-74
2021/06/25 01:59:27;;;;;;;;;20.67;16.67;;;;;33.67;32.50;100841.56;144165;569;132010;-75
2021/06/25 02:01:58;;;;;;;;;19.67;19.33;;;;;33.57;32.45;100848.41;144148;599;132905;-76
2021/06/25 02:04:28;;;;;;;;;22.33;22.33;;;;;33.51;32.37;100849.78;144168;677;132010;-80
2021/06/25 02:06:58;;;;;;;;;19.00;17.33;;;;;33.44;32.46;100847.53;144160;611;132905;-77
2021/06/25 02:09:28;;;;;;;;;23.00;22.00;;;;;33.37;32.24;100848.03;144166;569;132010;-77
2021/06/25 02:11:58;;;;;;;;;17.67;17.67;;;;;33.32;32.42;100839.81;144145;611;132008;-71
2021/06/25 02:14:30;;;;;;;;;19.33;17.00;;;;;33.31;32.35;100844.59;144154;633;132006;-76
2021/06/25 02:17:00;;;;;;;;;18.67;17.67;;;;;33.29;32.39;100848.91;144142;598;132905;-84
2021/06/25 02:19:31;;;;;;;;;20.67;19.00;;;;;33.30;31.78;100848.56;144172;583;132008;-79
2021/06/25 02:22:01;;;;;;;;;16.00;16.00;;;;;33.35;31.75;100843.91;144143;596;132905;-77
2021/06/25 02:24:31;;;;;;;;;18.00;16.67;;;;;33.40;31.96;100844.53;144171;648;131020;-82
2021/06/25 02:27:02;;;;;;;;;16.67;14.33;;;;;33.46;32.11;100848.00;144154;593;131905;-86
2021/06/25 02:29:32;;;;;;;;;19.33;19.33;;;;;33.53;32.18;100836.25;144169;581;132006;-79
2021/06/25 02:32:02;;;;;;;;;19.67;19.33;;;;;33.57;31.79;100837.19;144164;571;131905;-82
2021/06/25 02:34:33;;;;;;;;;14.67;14.33;;;;;33.61;32.27;100831.75;144171;604;132009;-84
2021/06/25 02:37:03;;;;;;;;;15.67;15.67;;;;;33.69;31.72;100837.28;144143;574;132904;-81
2021/06/25 02:39:33;;;;;;;;;18.00;15.33;;;;;33.68;31.46;100832.81;144153;571;132010;-86
2021/06/25 02:42:04;;;;;;;;;19.00;18.00;;;;;33.63;31.44;100835.84;144153;640;131905;-79
2021/06/25 02:44:35;;;;;;;;;18.67;17.67;;;;;33.56;31.52;100829.94;144168;569;131023;-86
2021/06/25 02:47:06;;;;;;;;;23.00;23.00;;;;;33.51;31.40;100832.97;144149;572;132905;-83
2021/06/25 02:49:36;;;;;;;;;20.67;17.33;;;;;33.42;31.60;100842.22;144172;585;131021;-80
2021/06/25 02:52:06;;;;;;;;;16.67;16.67;;;;;33.35;31.51;100836.34;144152;564;132010;-85
2021/06/25 02:54:37;;;;;;;;;19.67;19.33;;;;;33.30;32.14;100833.72;144163;642;132008;-76
2021/06/25 02:57:08;;;;;;;;;22.33;21.00;;;;;33.28;32.06;100836.87;144158;573;132905;-74
2021/06/25 02:59:38;;;;;;;;;21.67;19.67;;;;;33.22;32.30;100838.22;144170;596;132008;-81
2021/06/25 03:02:09;;;;;;;;;17.33;17.33;;;;;33.21;32.39;100841.38;144155;583;132905;-82
2021/06/25 03:04:39;;;;;;;;;24.33;21.67;;;;;32.89;32.77;100836.06;144151;594;132010;-79
2021/06/25 03:07:09;;;;;;;;;19.33;18.67;;;;;33.05;32.69;100847.56;144150;594;132008;-82
2021/06/25 03:09:39;;;;;;;;;21.00;21.00;;;;;33.03;32.90;100847.09;144172;644;132010;-82
2021/06/25 03:12:10;;;;;;;;;19.67;17.00;;;;;33.01;32.41;100844.63;144153;684;132020;-79
2021/06/25 03:14:41;;;;;;;;;18.00;18.00;;;;;33.05;32.61;100843.94;144172;569;132008;-77
2021/06/25 03:17:11;;;;;;;;;24.00;21.33;;;;;33.06;32.61;100842.78;144149;569;132028;-75
2021/06/25 03:19:41;;;;;;;;;20.67;19.00;;;;;33.13;32.59;100841.06;144171;606;132008;-77
2021/06/25 03:22:12;;;;;;;;;17.33;16.33;;;;;33.19;32.51;100841.72;144155;660;133008;-79
2021/06/25 03:24:42;;;;;;;;;16.00;15.67;;;;;33.22;32.28;100843.81;144167;644;132010;-79
2021/06/25 03:27:12;;;;;;;;;18.33;17.00;;;;;33.22;32.05;100843.03;144146;616;132010;-77
2021/06/25 03:29:42;;;;;;;;;17.33;17.33;;;;;33.23;31.95;100839.88;144153;634;132008;-80
2021/06/25 03:32:12;;;;;;;;;21.33;20.67;;;;;33.26;31.95;100839.22;144152;594;132010;-79
2021/06/25 03:34:43;;;;;;;;;22.00;21.67;;;;;33.25;32.09;100842.34;144167;567;132008;-76
2021/06/25 03:37:13;;;;;;;;;18.33;17.00;;;;;33.26;32.54;100852.38;144146;649;132019;-80
2021/06/25 03:39:43;;;;;;;;;17.67;17.33;;;;;33.31;32.39;100852.19;144164;580;132008;-87
2021/06/25 03:42:13;;;;;;;;;18.67;17.00;;;;;33.22;32.88;100848.62;144153;569;131904;-89
2021/06/25 03:44:44;;;;;;;;;20.00;19.33;;;;;33.42;32.92;100852.62;144186;563;132010;-89
2021/06/25 03:47:14;;;;;;;;;23.67;22.33;;;;;33.50;33.20;100859.38;144166;576;132020;-84
2021/06/25 03:49:44;;;;;;;;;24.33;22.67;;;;;33.56;34.05;100858.00;144170;595;131021;-79
2021/06/25 03:52:14;;;;;;;;;18.67;18.67;;;;;33.64;34.77;100853.47;144139;586;132905;-82
2021/06/25 03:54:44;;;;;;;;;26.33;24.00;;;;;33.73;35.12;100857.84;144149;564;132010;-78
2021/06/25 03:57:14;;;;;;;;;19.67;18.67;;;;;33.85;35.80;100853.47;144154;565;132021;-75
2021/06/25 03:59:44;;;;;;;;;21.67;21.67;;;;;33.96;35.14;100853.87;144170;592;131020;-84
2021/06/25 04:02:14;;;;;;;;;21.67;19.33;;;;;34.11;35.06;100860.87;144154;657;131907;-81
2021/06/25 04:04:44;;;;;;;;;23.00;22.00;;;;;34.23;34.94;100863.72;144164;567;132010;-81
2021/06/25 04:07:15;;;;;;;;;17.00;15.67;;;;;34.35;35.30;100867.72;144145;575;132906;-77
2021/06/25 04:09:45;;;;;;;;;25.00;24.00;;;;;34.51;35.31;100870.72;144170;603;131020;-85
2021/06/25 04:12:19;;;;;;;;;26.33;24.00;;;;;34.63;35.12;100876.38;144165;569;132045;-79
2021/06/25 04:14:49;;;;;;;;;22.33;20.33;;;;;34.78;34.77;100880.47;144169;624;132006;-78
2021/06/25 04:17:20;;;;;;;;;23.67;23.00;;;;;34.94;34.91;100879.78;144149;563;132018;-77
2021/06/25 04:19:50;;;;;;;;;20.33;19.67;;;;;35.07;34.29;100880.66;144154;573;132010;-85
2021/06/25 04:22:20;;;;;;;;;26.33;25.67;;;;;35.19;34.18;100874.22;144154;595;132907;-76
2021/06/25 04:24:51;;;;;;;;;25.33;21.33;;;;;35.25;34.13;100879.25;144172;569;131020;-79
2021/06/25 04:27:24;;;;;;;;;24.67;23.67;;;;;35.27;34.24;100885.31;144148;564;132012;-85
2021/06/25 04:29:54;;;;;;;;;22.67;22.33;;;;;35.28;34.74;100877.72;144167;624;132010;-82
2021/06/25 04:32:24;;;;;;;;;22.67;22.33;;;;;35.32;34.69;100884.28;144151;624;132907;-84
2021/06/25 04:34:54;;;;;;;;;0.33;0.00;;;;;35.39;34.60;100894.94;144176;634;132010;-81
2021/06/25 04:37:25;;;;;;;;;22.67;19.00;;;;;35.49;34.88;100896.44;144164;563;132010;-86
2021/06/25 04:39:55;;;;;;;;;21.33;20.67;;;;;35.59;34.99;100892.34;144165;627;132010;-80
2021/06/25 04:42:25;;;;;;;;;19.33;15.67;;;;;35.69;34.57;100880.59;144150;570;132018;-85
2021/06/25 04:44:55;;;;;;;;;23.33;23.33;;;;;35.79;34.45;100890.53;144155;583;131020;-85
2021/06/25 04:47:26;;;;;;;;;21.00;19.33;;;;;35.87;34.30;100892.41;144149;643;132018;-84
2021/06/25 04:49:56;;;;;;;;;23.33;23.33;;;;;35.97;34.37;100897.50;144171;570;132008;-88
2021/06/25 04:52:26;;;;;;;;;27.00;25.33;;;;;36.05;34.39;100903.38;144154;570;131016;-82
2021/06/25 04:54:56;;;;;;;;;24.33;21.33;;;;;36.08;34.24;100897.87;144170;601;131020;-84
2021/06/25 04:57:26;;;;;;;;;27.00;24.33;;;;;36.11;34.20;100896.31;144152;636;131907;-82
2021/06/25 04:59:56;;;;;;;;;19.00;19.00;;;;;36.16;33.57;100898.88;144167;637;132006;-87
2021/06/25 05:02:26;;;;;;;;;23.67;23.67;;;;;36.23;33.70;100899.06;144163;637;132010;-87
2021/06/25 05:04:56;;;;;;;;;23.33;22.33;;;;;36.32;33.30;100896.09;144166;632;132011;-82
2021/06/25 05:07:27;;;;;;;;;25.33;24.33;;;;;36.34;33.14;100892.94;144149;631;132016;-84
2021/06/25 05:09:57;;;;;;;;;23.67;22.33;;;;;36.37;33.25;100886.56;144150;595;132022;-77
2021/06/25 05:12:27;;;;;;;;;19.00;18.33;;;;;36.44;32.85;100886.78;144146;593;132019;-77
2021/06/25 05:14:57;;;;;;;;;23.67;20.67;;;;;36.53;32.61;100890.25;144173;635;131020;-81
2021/06/25 05:17:28;;;;;;;;;22.67;22.33;;;;;36.63;32.35;100890.91;144154;596;132907;-73
2021/06/25 05:19:58;;;;;;;;;20.33;19.67;;;;;36.75;32.20;100895.66;144172;569;132008;-77
2021/06/25 05:22:29;;;;;;;;;20.33;19.00;;;;;36.82;31.90;100893.03;144154;685;131907;-75
2021/06/25 05:24:59;;;;;;;;;20.33;19.00;;;;;36.88;31.78;100894.37;144173;570;131027;-76
2021/06/25 05:27:29;;;;;;;;;22.00;21.33;;;;;36.94;31.98;100894.94;144163;569;132907;-83
2021/06/25 05:29:59;;;;;;;;;22.00;22.00;;;;;37.00;31.56;100893.44;144173;584;131020;-76
2021/06/25 05:32:29;;;;;;;;;21.67;19.67;;;;;36.96;31.64;100892.56;144147;581;132907;-81
2021/06/25 05:35:00;;;;;;;;;21.00;21.00;;;;;37.00;31.48;100896.28;144150;586;132010;-78
2021/06/25 05:37:31;;;;;;;;;20.00;19.00;;;;;37.06;31.05;100888.41;144153;575;132010;-74
2021/06/25 05:40:01;;;;;;;;;17.67;17.33;;;;;37.15;31.03;100888.19;144164;592;132010;-76
2021/06/25 05:42:31;;;;;;;;;23.67;23.00;;;;;37.25;30.97;100896.09;144147;618;132012;-76
2021/06/25 05:45:01;;;;;;;;;22.00;21.33;;;;;37.33;31.03;100891.44;144166;602;132008;-77
2021/06/25 05:47:31;;;;;;;;;19.33;17.67;;;;;37.44;30.86;100897.34;144144;588;132013;-73
2021/06/25 05:50:02;;;;;;;;;19.00;17.33;;;;;37.52;29.89;100899.16;144165;592;132010;-75
2021/06/25 05:52:32;;;;;;;;;18.67;18.67;;;;;37.58;30.04;100891.25;144164;604;131907;-83
2021/06/25 05:55:02;;;;;;;;;19.33;16.67;;;;;37.63;29.65;100899.41;144170;566;132008;-82
2021/06/25 05:57:32;;;;;;;;;22.00;20.33;;;;;37.60;30.68;100895.34;144159;641;131907;-80
2021/06/25 06:00:05;;;;;;;;;23.00;21.33;;;;;37.55;32.14;100895.59;144154;628;132008;-82
2021/06/25 06:02:35;;;;;;;;;24.67;18.33;;;;;37.50;32.52;100893.06;144148;571;133018;-84
2021/06/25 06:05:06;;;;;;;;;20.67;20.67;;;;;37.53;32.59;100895.16;144170;639;132008;-90
2021/06/25 06:07:37;;;;;;;;;27.67;23.33;;;;;37.52;32.99;100893.53;144146;563;132905;-77
2021/06/25 06:10:12;;;;;;;;;23.00;22.67;;;;;37.38;32.90;100894.81;144174;576;132007;-84
2021/06/25 06:12:42;;;;;;;;;19.67;18.33;;;;;37.36;33.64;100897.19;144152;591;131021;-78
2021/06/25 06:15:15;;;;;;;;;21.33;21.00;;;;;37.39;33.53;100896.44;144166;569;132008;-82
2021/06/25 06:17:49;;;;;;;;;31.00;27.33;;;;;37.34;33.18;100896.72;144166;569;132011;-80
2021/06/25 06:20:25;;;;;;;;;16.00;16.00;;;;;37.32;34.09;100899.09;144165;614;132008;-80
2021/06/25 06:31:24;;;;;;;;;24.00;24.00;;;;;37.36;34.96;100900.00;144167;576;132010;-80
2021/06/25 06:33:55;;;;;;;;;28.67;24.67;;;;;37.42;35.07;100908.16;144148;589;131905;-78
2021/06/25 06:36:29;;;;;;;;;21.00;21.00;;;;;37.50;34.68;100904.34;144168;611;131020;-80
2021/06/25 06:39:02;;;;;;;;;20.33;18.67;;;;;37.54;32.07;100901.63;144147;634;133020;-78
2021/06/25 06:41:34;;;;;;;;;24.33;21.67;;;;;37.71;32.50;100900.38;144167;569;132008;-79
2021/06/25 06:44:05;;;;;;;;;17.67;17.00;;;;;37.90;32.06;100903.22;144162;561;132905;-79
2021/06/25 06:46:36;;;;;;;;;6.00;5.00;;;;;37.99;32.75;100905.88;144174;580;132010;-79
2021/06/25 06:49:06;;;;;;;;;20.67;19.67;;;;;37.98;32.67;100903.38;144148;583;132012;-78
2021/06/25 06:51:36;;;;;;;;;20.33;18.00;;;;;38.28;32.48;100902.78;144153;569;132010;-78
2021/06/25 06:54:07;;;;;;;;;22.00;21.67;;;;;38.48;31.36;100901.59;144150;603;131905;-79
2021/06/25 06:56:37;;;;;;;;;19.00;18.00;;;;;38.59;30.91;100910.28;144164;654;132021;-81
2021/06/25 06:59:07;;;;;;;;;20.00;19.33;;;;;38.56;31.38;100910.19;144150;579;133016;-81
2021/06/25 07:01:37;;;;;;;;;23.67;23.67;;;;;38.40;32.56;100916.75;144168;631;132011;-80
2021/06/25 07:04:08;;;;;;;;;21.67;21.00;;;;;38.30;32.42;100911.69;144154;564;132028;-80
2021/06/25 07:06:38;;;;;;;;;20.33;18.00;;;;;38.13;33.60;100915.81;144167;580;132010;-71
2021/06/25 07:09:09;;;;;;;;;24.33;23.00;;;;;37.95;34.43;100914.22;144159;602;132905;-86
2021/06/25 07:11:39;;;;;;;;;19.67;16.67;;;;;37.90;33.36;100914.53;144166;569;132008;-77
2021/06/25 07:14:09;;;;;;;;;22.33;21.33;;;;;38.02;33.00;100912.75;144154;579;131905;-81
2021/06/25 07:16:39;;;;;;;;;19.67;18.67;;;;;38.18;32.27;100913.47;144156;590;131022;-80
2021/06/25 07:19:09;;;;;;;;;21.67;21.67;;;;;38.36;30.66;100913.84;144151;587;132905;-80
2021/06/25 07:21:39;;;;;;;;;18.00;17.00;;;;;38.58;28.75;100913.47;144168;569;132008;-80
2021/06/25 07:24:09;;;;;;;;;20.33;19.67;;;;;38.75;29.13;100910.12;144152;574;132010;-81
2021/06/25 07:26:39;;;;;;;;;19.00;18.67;;;;;38.95;29.54;100901.63;144172;572;132008;-80
2021/06/25 07:29:11;;;;;;;;;18.33;18.33;;;;;39.14;29.59;100908.37;144150;570;132904;-79
2021/06/25 07:31:41;;;;;;;;;20.67;20.33;;;;;39.31;26.95;100907.84;144176;578;132008;-81
2021/06/25 07:34:11;;;;;;;;;15.67;15.67;;;;;39.37;25.38;100915.97;144163;576;133015;-79
2021/06/25 07:36:42;;;;;;;;;19.00;17.33;;;;;39.42;25.81;100913.69;144173;578;132008;-80
2021/06/25 07:39:12;;;;;;;;;21.00;19.33;;;;;39.48;26.37;100909.34;144149;638;132018;-80
2021/06/25 07:41:43;;;;;;;;;20.67;19.00;;;;;39.58;26.55;100913.50;144150;599;132010;-80
2021/06/25 07:44:13;;;;;;;;;25.67;25.33;;;;;39.72;26.81;100912.09;144148;577;132010;-80
2021/06/25 07:46:44;;;;;;;;;22.67;20.67;;;;;39.85;26.50;100902.19;144170;572;132008;-79
2021/06/25 07:49:14;;;;;;;;;22.67;22.67;;;;;40.05;26.17;100902.84;144155;569;131905;-80
2021/06/25 07:51:44;;;;;;;;;20.67;18.00;;;;;40.23;25.66;100905.03;144172;564;131020;-81
2021/06/25 07:54:14;;;;;;;;;18.00;17.00;;;;;40.36;24.46;100894.28;144152;576;131018;-79
2021/06/25 07:56:44;;;;;;;;;16.33;16.33;;;;;40.35;23.73;100889.81;144167;693;132010;-81
2021/06/25 07:59:15;;;;;;;;;16.33;15.00;;;;;40.41;24.76;100895.94;144162;569;132020;-83
2021/06/25 08:01:45;;;;;;;;;18.33;18.00;;;;;40.48;23.74;100898.88;144168;570;132009;-75
2021/06/25 08:04:15;;;;;;;;;19.33;16.67;;;;;40.49;23.20;100891.16;144150;589;132021;-83
2021/06/25 08:06:45;;;;;;;;;12.00;11.00;;;;;40.51;24.14;100894.41;144154;666;132010;-83
2021/06/25 08:09:15;;;;;;;;;21.33;19.67;;;;;40.59;25.22;100907.47;144152;644;132020;-83
2021/06/25 08:11:46;;;;;;;;;22.33;21.33;;;;;40.64;24.68;100903.47;144171;632;132010;-83
2021/06/25 08:14:16;;;;;;;;;19.67;19.67;;;;;40.70;25.05;100901.87;144155;598;132020;-86
2021/06/25 08:16:46;;;;;;;;;18.00;16.67;;;;;40.74;24.65;100897.09;144173;598;131021;-84
2021/06/25 08:19:17;;;;;;;;;17.33;17.33;;;;;40.73;24.75;100901.09;144148;591;132012;-84
2021/06/25 08:21:47;;;;;;;;;17.67;17.67;;;;;40.78;24.85;100908.47;144170;581;132008;-88
2021/06/25 08:24:17;;;;;;;;;19.33;18.00;;;;;40.85;23.51;100909.34;144166;588;132012;-84
2021/06/25 08:26:47;;;;;;;;;20.00;20.00;;;;;40.74;22.41;100914.94;144165;567;132010;-83
2021/06/25 08:29:17;;;;;;;;;16.00;16.00;;;;;40.76;23.01;100903.19;144143;598;132020;-78
2021/06/25 08:31:48;;;;;;;;;22.67;22.00;;;;;40.82;23.44;100903.62;144152;587;132008;-80
2021/06/25 08:34:18;;;;;;;;;21.00;21.00;;;;;40.72;21.76;100903.12;144153;579;132021;-79
2021/06/25 08:36:48;;;;;;;;;19.67;19.67;;;;;40.75;21.84;100899.53;144167;601;131020;-82
2021/06/25 08:39:19;;;;;;;;;17.67;16.33;;;;;40.90;22.29;100891.16;144155;593;132010;-80
2021/06/25 08:41:49;;;;;;;;;20.33;18.67;;;;;40.88;24.07;100885.06;144167;589;132010;-80
2021/06/25 08:44:20;;;;;;;;;21.67;20.67;;;;;40.94;24.62;100880.66;144148;636;132020;-80
2021/06/25 08:46:51;;;;;;;;;22.67;21.67;;;;;40.95;24.28;100878.63;144173;592;132010;-81
2021/06/25 08:49:28;;;;;;;;;22.00;19.00;;;;;40.78;24.25;100875.28;144160;564;132021;-80
2021/06/25 08:51:59;;;;;;;;;20.00;18.00;;;;;40.71;24.39;100870.31;144168;621;132008;-79
2021/06/25 08:54:30;;;;;;;;;20.33;19.67;;;;;40.71;24.22;100864.66;144150;604;132867;-79
2021/06/25 08:57:03;;;;;;;;;17.67;17.67;;;;;40.73;24.38;100873.59;144152;582;132010;-81
2021/06/25 08:59:34;;;;;;;;;21.00;19.67;;;;;40.80;24.16;100861.50;144153;607;132905;-79
2021/06/25 09:02:05;;;;;;;;;21.00;19.67;;;;;40.82;23.98;100859.09;144168;569;131021;-80
2021/06/25 09:04:41;;;;;;;;;20.00;20.00;;;;;40.71;23.09;100876.00;144142;691;132904;-79
2021/06/25 09:07:12;;;;;;;;;20.67;20.00;;;;;40.85;23.25;100863.19;144169;617;131020;-79
2021/06/25 09:09:46;;;;;;;;;20.33;19.33;;;;;40.95;22.87;100864.47;144155;566;132010;-80
2021/06/25 09:12:25;;;;;;;;;16.00;16.00;;;;;40.97;23.32;100864.88;144166;601;132010;-79
2021/06/25 09:15:15;;;;;;;;;18.67;17.00;;;;;41.09;24.21;100866.56;144161;580;132905;-80
2021/06/25 09:18:05;;;;;;;;;16.33;16.33;;;;;40.94;23.44;100860.00;144177;608;131021;-80
2021/06/25 09:20:50;;;;;;;;;21.33;19.33;;;;;41.01;23.73;100855.19;144152;649;132010;-79
2021/06/25 09:23:39;;;;;;;;;20.33;16.67;;;;;40.83;24.03;100848.56;144157;596;131011;-80
2021/06/25 09:26:11;;;;;;;;;22.33;18.67;;;;;40.93;23.29;100861.22;144154;571;131021;-80
2021/06/25 09:28:45;;;;;;;;;19.67;19.67;;;;;40.88;23.48;100863.19;144170;584;132006;-79
2021/06/25 09:31:24;;;;;;;;;20.33;19.67;;;;;40.93;23.56;100864.84;144150;602;132904;-79
2021/06/25 09:33:58;;;;;;;;;16.33;16.00;;;;;41.08;23.21;100864.94;144175;563;131020;-79
2021/06/25 09:36:36;;;;;;;;;20.00;17.33;;;;;41.08;25.01;100865.78;144153;566;132010;-80
2021/06/25 09:39:14;;;;;;;;;17.33;15.67;;;;;40.94;25.80;100863.63;144180;630;131033;-79
2021/06/25 09:41:46;;;;;;;;;19.00;15.67;;;;;41.10;25.43;100854.00;144165;598;132018;-79
2021/06/25 09:44:19;;;;;;;;;18.00;17.00;;;;;41.18;24.89;100861.41;144166;604;132022;-79
2021/06/25 09:46:51;;;;;;;;;19.00;19.00;;;;;41.36;24.89;100866.38;144153;599;132020;-79
2021/06/25 09:49:32;;;;;;;;;18.33;17.67;;;;;41.50;23.92;100869.28;144161;659;132010;-80
2021/06/25 09:52:04;;;;;;;;;20.00;19.00;;;;;41.70;24.42;100860.47;144154;623;131904;-79
2021/06/25 09:54:35;;;;;;;;;17.67;15.00;;;;;41.87;24.68;100858.91;144170;566;131021;-79
2021/06/25 09:57:14;;;;;;;;;22.67;22.00;;;;;42.08;23.86;100858.19;144157;563;131904;-80
2021/06/25 10:00:08;;;;;;;;;21.67;20.00;;;;;42.22;22.74;100854.56;144169;606;132009;-79
2021/06/25 10:02:39;;;;;;;;;17.33;17.33;;;;;42.37;21.94;100857.41;144150;690;132019;-79
2021/06/25 10:05:14;;;;;;;;;19.00;18.67;;;;;42.49;23.28;100853.41;144170;580;132010;-78
2021/06/25 10:07:44;;;;;;;;;22.33;20.67;;;;;42.69;23.82;100851.78;144166;669;131904;-78
2021/06/25 10:10:15;;;;;;;;;17.67;15.67;;;;;42.78;23.68;100837.16;144177;590;131021;-77
2021/06/25 10:12:45;;;;;;;;;18.00;16.33;;;;;42.91;22.68;100833.91;144157;573;132020;-78
2021/06/25 10:15:16;;;;;;;;;18.33;17.33;;;;;42.99;20.30;100824.97;144162;564;132010;-78
2021/06/25 10:17:46;;;;;;;;;20.33;18.33;;;;;42.92;20.52;100830.69;144151;570;131905;-79
2021/06/25 10:20:17;;;;;;;;;21.00;19.00;;;;;42.91;20.11;100823.37;144169;683;131994;-79
2021/06/25 10:22:52;;;;;;;;;22.67;19.67;;;;;42.92;20.78;100824.16;144154;613;131905;-77
2021/06/25 10:25:23;;;;;;;;;19.00;18.67;;;;;42.93;21.03;100823.75;144168;683;132008;-79
2021/06/25 10:27:56;;;;;;;;;19.00;19.00;;;;;42.97;21.14;100821.72;144152;594;132904;-79
2021/06/25 10:30:31;;;;;;;;;20.33;20.33;;;;;42.99;21.06;100813.59;144164;659;132010;-79
2021/06/25 10:33:03;;;;;;;;;19.33;18.67;;;;;43.02;21.99;100811.13;144167;581;132905;-79
2021/06/25 10:35:33;;;;;;;;;23.33;19.33;;;;;43.01;21.52;100804.66;144169;575;132008;-79
2021/06/25 10:38:04;;;;;;;;;21.33;21.00;;;;;43.10;21.37;100795.69;144149;617;133020;-80
2021/06/25 10:40:34;;;;;;;;;19.00;18.67;;;;;43.19;20.85;100798.09;144149;587;132021;-79
2021/06/25 10:43:04;;;;;;;;;20.67;20.33;;;;;43.15;21.31;100795.25;144152;582;131905;-79
2021/06/25 10:45:44;;;;;;;;;20.67;20.67;;;;;43.14;20.97;100790.78;144175;668;131024;-80
2021/06/25 10:48:38;;;;;;;;;22.33;21.33;;;;;43.11;21.27;100783.88;144147;576;132905;-79
2021/06/25 10:51:27;;;;;;;;;20.33;20.33;;;;;43.17;20.75;100789.94;144166;596;132008;-79
2021/06/25 10:54:17;;;;;;;;;17.67;17.00;;;;;43.20;20.54;100791.97;144147;611;132020;-79
2021/06/25 10:57:08;;;;;;;;;19.33;19.33;;;;;43.01;21.29;100781.06;144170;576;132008;-78
2021/06/25 10:59:44;;;;;;;;;22.00;19.33;;;;;42.98;20.75;100777.81;144161;568;132013;-79
2021/06/25 11:02:14;;;;;;;;;22.33;22.00;;;;;42.89;21.12;100776.59;144171;612;132011;-79
2021/06/25 11:04:47;;;;;;;;;18.00;18.00;;;;;42.85;21.49;100771.75;144149;564;132018;-80
2021/06/25 11:07:42;;;;;;;;;16.00;16.00;;;;;42.87;21.42;100770.53;144154;580;132010;-80
2021/06/25 11:10:24;;;;;;;;;14.33;12.67;;;;;42.64;22.50;100766.91;144156;619;132010;-77
2021/06/25 11:13:22;;;;;;;;;26.67;24.33;;;;;42.60;22.79;100768.91;144169;646;132010;-79
2021/06/25 11:15:59;;;;;;;;;21.67;19.33;;;;;42.61;22.52;100772.59;144155;603;132041;-80
2021/06/25 11:18:32;;;;;;;;;21.33;21.33;;;;;42.59;21.77;100766.50;144174;724;131022;-79
2021/06/25 11:21:05;;;;;;;;;17.67;17.00;;;;;42.71;21.52;100764.03;144155;589;131016;-80
2021/06/25 11:23:53;;;;;;;;;19.33;17.33;;;;;42.86;20.98;100755.47;144175;627;131021;-78
2021/06/25 11:26:26;;;;;;;;;25.00;23.00;;;;;42.80;20.64;100757.91;144157;611;132012;-77
2021/06/25 11:29:08;;;;;;;;;17.33;17.33;;;;;42.80;20.30;100757.91;144166;568;132022;-78
2021/06/25 11:31:38;;;;;;;;;20.33;19.33;;;;;42.82;19.54;100758.31;144155;615;132011;-78